Time;durP1;ratioP1;P1;durP2;ratioP2;P2;SDS_P1;SDS_P2;PMS_P1;PMS_P2;Temp;Humidity;BMP_temperature;BMP_pressure;BME280_temperature;BME280_humidity;BME280_pressure;Samples;Min_cycle;Max_cycle;Signal;HPM_P1;HPM_P2
2021/12/25 00:00:56;;;;;;;23.65;16.35;;;4.60;99.90;;;;;;4869252;29;20147;-79
2021/12/25 00:03:23;;;;;;;21.70;15.35;;;4.50;99.90;;;;;;4860271;29;20029;-81
2021/12/25 00:05:52;;;;;;;22.83;16.17;;;4.50;99.90;;;;;;4858241;29;20054;-82
2021/12/25 00:08:23;;;;;;;19.90;14.48;;;4.50;99.90;;;;;;4856021;29;20021;-79
2021/12/25 00:10:50;;;;;;;25.80;17.67;;;4.40;99.90;;;;;;4846033;29;20481;-82
2021/12/25 00:13:20;;;;;;;20.27;14.70;;;4.40;99.90;;;;;;4861247;29;20029;-82
2021/12/25 00:15:48;;;;;;;21.10;15.68;;;4.40;99.90;;;;;;4842282;29;20049;-79
2021/12/25 00:18:15;;;;;;;23.80;16.58;;;4.40;99.90;;;;;;4870627;29;20025;-80
2021/12/25 00:20:42;;;;;;;19.17;13.40;;;4.40;99.90;;;;;;4831018;29;20033;-80
2021/12/25 00:23:10;;;;;;;20.30;14.37;;;4.30;99.90;;;;;;4872925;29;20080;-80
2021/12/25 00:25:42;;;;;;;22.25;15.80;;;4.30;99.90;;;;;;4868782;29;20060;-79
2021/12/25 00:28:35;;;;;;;25.55;18.05;;;4.30;99.90;;;;;;4860102;29;20029;-81
2021/12/25 00:36:14;;;;;;;19.35;12.98;;;4.30;99.90;;;;;;4866687;29;20531;-79
2021/12/25 00:38:44;;;;;;;19.95;13.35;;;4.20;99.90;;;;;;4856601;29;20374;-81
2021/12/25 00:41:12;;;;;;;18.10;12.17;;;4.20;99.90;;;;;;4859019;29;20048;-80
2021/12/25 00:43:39;;;;;;;17.10;11.70;;;4.20;99.90;;;;;;4874572;29;20024;-82
2021/12/25 00:46:05;;;;;;;18.13;13.07;;;4.20;99.90;;;;;;4874861;29;20041;-81
2021/12/25 00:48:32;;;;;;;22.23;14.82;;;4.20;99.90;;;;;;4874445;29;20028;-80
2021/12/25 00:51:00;;;;;;;17.17;11.70;;;4.20;99.90;;;;;;4861890;29;21108;-80
2021/12/25 00:53:28;;;;;;;14.87;11.20;;;4.10;99.90;;;;;;4861549;29;20040;-81
2021/12/25 00:55:54;;;;;;;19.03;13.00;;;4.00;99.90;;;;;;4854927;29;20759;-81
2021/12/25 00:58:22;;;;;;;18.42;11.98;;;4.00;99.90;;;;;;4857692;29;20382;-81
2021/12/25 01:00:51;;;;;;;13.63;9.87;;;4.00;99.90;;;;;;4857195;29;20056;-81
2021/12/25 01:03:18;;;;;;;24.77;14.30;;;4.00;99.90;;;;;;4843461;29;20481;-80
2021/12/25 01:05:45;;;;;;;17.43;11.57;;;3.90;99.90;;;;;;4872660;29;20050;-80
2021/12/25 01:08:11;;;;;;;19.03;13.53;;;3.80;99.90;;;;;;4861943;29;20050;-82
2021/12/25 01:10:39;;;;;;;25.57;14.70;;;3.70;99.90;;;;;;4843570;29;20051;-82
2021/12/25 01:29:03;;;;;;;24.80;16.35;;;3.40;99.90;;;;;;4846719;29;20040;-81
2021/12/25 01:37:24;;;;;;;35.43;22.87;;;3.20;99.90;;;;;;4860054;29;20044;-82
2021/12/25 01:49:04;;;;;;;36.87;23.07;;;3.00;99.90;;;;;;4860739;29;20056;-81
2021/12/25 01:51:32;;;;;;;31.10;20.77;;;2.90;99.90;;;;;;4857701;29;20040;-81
2021/12/25 01:54:01;;;;;;;37.33;22.47;;;2.90;99.90;;;;;;4856679;29;20112;-81
2021/12/25 01:56:28;;;;;;;45.60;26.23;;;2.90;99.90;;;;;;4857388;29;20370;-81
2021/12/25 01:58:55;;;;;;;42.03;27.47;;;2.90;99.90;;;;;;4857400;29;20385;-81
2021/12/25 02:01:22;;;;;;;48.87;25.53;;;2.90;99.90;;;;;;4845536;29;20354;-81
2021/12/25 02:03:48;;;;;;;41.53;26.20;;;2.90;99.90;;;;;;4829172;29;20057;-81
2021/12/25 02:06:15;;;;;;;41.33;26.50;;;2.80;99.90;;;;;;4857102;29;20056;-81
2021/12/25 02:08:44;;;;;;;44.07;27.07;;;2.80;99.90;;;;;;4842321;29;20049;-80
2021/12/25 02:11:11;;;;;;;44.60;29.00;;;2.80;99.90;;;;;;4845521;29;20109;-80
2021/12/25 02:13:41;;;;;;;47.07;27.90;;;2.80;99.90;;;;;;4842341;29;20046;-81
2021/12/25 02:16:13;;;;;;;51.53;30.70;;;2.80;99.90;;;;;;4855699;29;20377;-80
2021/12/25 02:19:03;;;;;;;57.23;31.67;;;2.80;99.90;;;;;;4859170;29;20036;-80
2021/12/25 02:21:57;;;;;;;52.80;31.03;;;2.80;99.90;;;;;;4846911;29;20049;-80
2021/12/25 02:24:23;;;;;;;47.40;28.20;;;2.70;99.90;;;;;;4815312;29;20045;-80
2021/12/25 02:26:50;;;;;;;47.07;27.93;;;2.70;99.90;;;;;;4805881;29;20056;-80
2021/12/25 02:29:23;;;;;;;47.63;28.80;;;2.70;99.90;;;;;;4861106;29;20033;-80
2021/12/25 02:31:51;;;;;;;45.17;28.60;;;2.70;99.90;;;;;;4865753;29;20044;-81
2021/12/25 02:34:18;;;;;;;46.07;29.90;;;2.70;99.90;;;;;;4863330;29;20048;-80
2021/12/25 02:36:44;;;;;;;49.03;28.50;;;2.60;99.90;;;;;;4832372;29;20040;-80
2021/12/25 02:39:12;;;;;;;47.03;29.27;;;2.60;99.90;;;;;;4834329;29;20049;-81
2021/12/25 02:41:38;;;;;;;47.07;28.77;;;2.60;99.90;;;;;;4863801;29;20618;-81
2021/12/25 02:44:05;;;;;;;49.27;29.77;;;2.60;99.90;;;;;;4845934;29;21472;-81
2021/12/25 02:46:48;;;;;;;53.63;31.47;;;2.60;99.90;;;;;;4857264;29;20042;-80
2021/12/25 02:49:14;;;;;;;46.40;27.70;;;2.60;99.90;;;;;;4857128;29;20037;-81
2021/12/25 02:51:44;;;;;;;50.80;29.20;;;2.60;99.90;;;;;;4863985;29;20038;-80
2021/12/25 02:54:11;;;;;;;51.83;29.83;;;2.60;99.90;;;;;;4816512;29;20041;-79
2021/12/25 02:56:38;;;;;;;51.40;29.70;;;2.50;99.90;;;;;;4857668;29;20032;-80
2021/12/25 02:59:05;;;;;;;47.17;28.23;;;2.50;99.90;;;;;;4871246;29;20044;-80
2021/12/25 03:01:31;;;;;;;52.13;31.20;;;2.50;99.90;;;;;;4864223;29;20032;-79
2021/12/25 03:03:58;;;;;;;61.73;31.50;;;2.60;99.90;;;;;;4859809;29;20037;-80
2021/12/25 03:06:25;;;;;;;52.10;29.77;;;2.50;99.90;;;;;;4856405;29;20025;-80
2021/12/25 03:08:53;;;;;;;50.50;28.67;;;2.50;99.90;;;;;;4877297;29;20040;-81
2021/12/25 03:11:19;;;;;;;58.03;31.23;;;2.50;99.90;;;;;;4859991;29;20033;-80
2021/12/25 03:13:57;;;;;;;61.93;31.43;;;2.40;99.90;;;;;;4875618;29;20036;-81
2021/12/25 03:16:26;;;;;;;58.57;30.53;;;2.50;99.90;;;;;;4830766;29;20041;-79
2021/12/25 03:18:55;;;;;;;50.23;28.80;;;2.40;99.90;;;;;;4862319;29;20385;-80
2021/12/25 03:21:22;;;;;;;55.63;28.10;;;2.40;99.90;;;;;;4859158;29;20044;-79
2021/12/25 03:23:52;;;;;;;45.90;26.00;;;2.40;99.90;;;;;;4859423;29;20033;-80
2021/12/25 03:26:19;;;;;;;56.50;29.50;;;2.30;99.90;;;;;;4851502;29;20531;-80
2021/12/25 03:28:49;;;;;;;42.80;24.63;;;2.40;99.90;;;;;;4858206;29;20033;-80
2021/12/25 03:31:19;;;;;;;40.83;24.37;;;2.30;99.90;;;;;;4844254;29;20041;-80
2021/12/25 03:33:55;;;;;;;46.97;26.13;;;2.30;99.90;;;;;;4871897;29;20029;-79
2021/12/25 03:36:22;;;;;;;39.20;23.87;;;2.30;99.90;;;;;;4852340;29;20053;-80
2021/12/25 03:38:48;;;;;;;42.23;24.57;;;2.20;99.90;;;;;;4843861;29;20037;-80
2021/12/25 03:41:15;;;;;;;44.97;25.03;;;2.20;99.90;;;;;;4875156;29;20584;-79
2021/12/25 03:43:44;;;;;;;45.13;24.27;;;2.20;99.90;;;;;;4839152;29;20041;-79
2021/12/25 03:46:12;;;;;;;40.07;23.20;;;2.20;99.90;;;;;;4856104;29;20040;-80
2021/12/25 03:59:14;;;;;;;38.07;21.20;;;2.00;99.90;;;;;;4853054;29;20076;-80
2021/12/25 04:01:51;;;;;;;35.53;19.77;;;2.10;99.90;;;;;;4875545;29;20037;-80
2021/12/25 04:06:59;;;;;;;37.13;18.87;;;2.00;99.90;;;;;;4857187;29;20029;-80
2021/12/25 04:09:28;;;;;;;25.63;17.53;;;2.00;99.90;;;;;;4856183;29;20052;-79
2021/12/25 04:12:00;;;;;;;28.00;16.70;;;1.90;99.90;;;;;;4857975;29;20028;-80
2021/12/25 04:14:26;;;;;;;26.30;16.60;;;1.90;99.90;;;;;;4870191;29;20048;-80
2021/12/25 04:16:53;;;;;;;27.80;17.67;;;1.90;99.90;;;;;;4825514;29;20038;-80
2021/12/25 04:19:22;;;;;;;25.97;16.23;;;1.90;99.90;;;;;;4848438;29;20049;-81
2021/12/25 04:22:02;;;;;;;27.43;16.13;;;1.80;99.90;;;;;;4854647;29;20041;-80
2021/12/25 04:24:33;;;;;;;19.67;14.23;;;1.90;99.90;;;;;;4836483;29;20050;-80
2021/12/25 04:27:00;;;;;;;22.73;14.00;;;1.80;99.90;;;;;;4841698;29;20037;-81
2021/12/25 04:29:41;;;;;;;24.37;13.53;;;1.80;99.90;;;;;;4856488;29;20038;-81
2021/12/25 05:02:54;;;;;;;13.50;7.70;;;1.30;99.90;;;;;;4867668;29;20052;-81
2021/12/25 05:05:39;;;;;;;14.88;8.05;;;1.30;99.90;;;;;;4855822;29;20045;-81
2021/12/25 05:08:26;;;;;;;12.67;7.80;;;1.30;99.90;;;;;;4853796;29;20053;-75
2021/12/25 05:10:54;;;;;;;8.53;6.13;;;1.30;99.90;;;;;;4868847;29;20037;-75
2021/12/25 05:13:21;;;;;;;11.93;5.23;;;1.30;99.90;;;;;;4871021;29;20024;-76
2021/12/25 05:15:50;;;;;;;10.47;4.97;;;1.30;99.90;;;;;;4854840;29;20028;-75
2021/12/25 05:18:17;;;;;;;6.27;3.00;;;1.20;99.90;;;;;;4860978;29;20056;-76
2021/12/25 05:20:44;;;;;;;4.70;3.00;;;1.20;99.90;;;;;;4820547;29;20045;-75
2021/12/25 05:23:11;;;;;;;5.97;3.27;;;1.10;99.90;;;;;;4836923;29;20049;-76
2021/12/25 05:25:38;;;;;;;5.20;2.97;;;1.00;99.90;;;;;;4839177;29;20044;-74
2021/12/25 05:28:04;;;;;;;6.00;2.80;;;1.00;99.90;;;;;;4851953;29;20025;-75
2021/12/25 05:30:31;;;;;;;5.50;2.77;;;0.90;99.90;;;;;;4856867;29;20040;-76
2021/12/25 05:33:26;;;;;;;5.17;2.73;;;0.80;99.90;;;;;;4787104;29;20191;-75
2021/12/25 05:36:24;;;;;;;6.53;2.23;;;0.80;99.90;;;;;;4855822;29;20053;-75
2021/12/25 05:39:14;;;;;;;4.00;2.07;;;0.80;99.90;;;;;;4837375;29;20047;-74
2021/12/25 05:41:44;;;;;;;5.63;2.13;;;0.70;99.90;;;;;;4835582;29;20040;-74
2021/12/25 05:44:21;;;;;;;4.63;3.07;;;0.70;99.90;;;;;;4839842;29;20059;-75
2021/12/25 05:47:07;;;;;;;3.57;2.33;;;0.60;99.90;;;;;;4856537;29;20497;-75
2021/12/25 05:49:38;;;;;;;7.03;2.67;;;0.60;99.90;;;;;;4852728;29;20052;-74
2021/12/25 05:52:21;;;;;;;6.00;3.27;;;0.50;99.90;;;;;;4846123;29;20477;-75
2021/12/25 05:55:00;;;;;;;5.97;2.97;;;0.40;99.90;;;;;;4861956;29;20057;-76
2021/12/25 05:57:35;;;;;;;3.70;2.30;;;0.30;99.90;;;;;;4855632;29;20037;-75
2021/12/25 06:00:26;;;;;;;4.67;2.87;;;0.40;99.90;;;;;;4838998;29;20072;-75
2021/12/25 06:02:55;;;;;;;4.47;2.50;;;0.40;99.90;;;;;;4851407;29;20025;-75
2021/12/25 06:05:24;;;;;;;5.40;3.07;;;0.40;99.90;;;;;;4861264;29;20052;-75
2021/12/25 06:07:51;;;;;;;4.80;3.00;;;0.40;99.90;;;;;;4855425;29;20029;-75
2021/12/25 06:10:18;;;;;;;6.37;3.43;;;0.40;99.90;;;;;;4845600;29;20041;-75
2021/12/25 06:12:47;;;;;;;7.30;3.37;;;0.40;99.90;;;;;;4855876;29;20119;-75
2021/12/25 06:15:18;;;;;;;8.00;3.00;;;0.30;99.90;;;;;;4869051;29;20381;-75
2021/12/25 06:17:48;;;;;;;6.70;3.50;;;0.30;99.90;;;;;;4874438;29;20033;-75
2021/12/25 06:20:27;;;;;;;4.73;3.10;;;0.30;99.90;;;;;;4878327;29;20033;-75
2021/12/25 06:22:54;;;;;;;4.97;3.27;;;0.30;99.90;;;;;;4857073;29;20485;-75
2021/12/25 06:25:31;;;;;;;9.50;3.50;;;0.30;99.90;;;;;;4839628;29;20495;-75
2021/12/25 06:28:17;;;;;;;9.00;4.07;;;0.30;99.90;;;;;;4860935;29;20028;-75
2021/12/25 06:30:59;;;;;;;;;;;0.30;99.90;;;;;;4839224;29;20045;-75
2021/12/25 06:33:58;;;;;;;7.70;4.30;;;0.30;99.90;;;;;;4850173;29;19915;-75
2021/12/25 06:36:59;;;;;;;8.87;4.90;;;0.20;99.90;;;;;;4867106;29;20028;-75
2021/12/25 06:39:40;;;;;;;6.10;3.97;;;0.20;99.90;;;;;;4841077;29;20037;-75
2021/12/25 06:42:10;;;;;;;8.73;3.83;;;0.20;99.90;;;;;;4840250;29;20041;-75
2021/12/25 06:44:37;;;;;;;5.57;3.77;;;0.20;99.90;;;;;;4834652;29;20053;-74
2021/12/25 06:47:04;;;;;;;4.80;3.97;;;0.20;99.90;;;;;;4859022;29;20037;-74
2021/12/25 06:49:33;;;;;;;6.47;4.00;;;0.20;99.90;;;;;;4840298;29;20036;-74
2021/12/25 06:52:35;;;;;;;5.80;4.10;;;0.20;99.90;;;;;;4839021;29;20072;-75
2021/12/25 06:55:22;;;;;;;4.40;3.70;;;0.20;99.90;;;;;;4873103;29;20040;-75
2021/12/25 06:58:03;;;;;;;6.10;3.87;;;0.10;99.90;;;;;;4858812;29;20040;-75
2021/12/25 07:00:30;;;;;;;6.40;3.50;;;0.10;99.90;;;;;;4866465;29;20037;-75
2021/12/25 07:02:58;;;;;;;5.70;3.87;;;0.00;99.90;;;;;;4861057;29;20036;-75
2021/12/25 07:05:43;;;;;;;6.57;3.37;;;0.00;99.90;;;;;;4867655;29;20037;-75
2021/12/25 07:08:35;;;;;;;6.37;3.87;;;0.00;99.90;;;;;;4845245;29;20107;-75
2021/12/25 07:11:20;;;;;;;5.47;3.70;;;-0.10;99.90;;;;;;4864866;29;20041;-76
2021/12/25 07:14:03;;;;;;;5.43;3.40;;;-0.10;99.90;;;;;;4871675;29;20025;-75
2021/12/25 07:16:59;;;;;;;4.77;3.30;;;-0.10;99.90;;;;;;4860851;29;20468;-75
2021/12/25 07:19:25;;;;;;;6.87;3.10;;;-0.20;99.90;;;;;;4838916;29;20049;-76
2021/12/25 07:22:10;;;;;;;5.50;3.07;;;-0.20;99.90;;;;;;4847911;29;20081;-78
2021/12/25 07:24:52;;;;;;;5.47;3.53;;;-0.20;99.90;;;;;;4825970;29;20036;-78
2021/12/25 07:27:38;;;;;;;6.17;3.60;;;-0.30;99.90;;;;;;4837526;29;20056;-78
2021/12/25 07:30:06;;;;;;;6.10;3.23;;;-0.30;99.90;;;;;;4860595;29;20751;-77
2021/12/25 07:32:33;;;;;;;5.27;2.93;;;-0.30;99.90;;;;;;4841858;29;20401;-77
2021/12/25 07:34:59;;;;;;;6.40;3.67;;;-0.30;99.90;;;;;;4808094;29;20033;-77
2021/12/25 07:37:26;;;;;;;8.83;5.40;;;-0.40;99.90;;;;;;4856351;29;20029;-76
2021/12/25 07:39:52;;;;;;;15.33;7.27;;;-0.40;99.90;;;;;;4839175;29;20061;-77
2021/12/25 07:42:18;;;;;;;5.90;4.63;;;-0.40;99.90;;;;;;4854144;29;20374;-76
2021/12/25 07:45:07;;;;;;;6.17;4.13;;;-0.50;99.90;;;;;;4844681;29;20505;-77
2021/12/25 07:47:39;;;;;;;7.27;4.20;;;-0.50;99.90;;;;;;4862087;29;20052;-77
2021/12/25 07:50:07;;;;;;;8.67;4.67;;;-0.60;99.90;;;;;;4872730;29;20037;-77
2021/12/25 07:52:33;;;;;;;7.30;4.07;;;-0.60;99.90;;;;;;4849563;29;20556;-77
2021/12/25 07:55:00;;;;;;;7.40;5.03;;;-0.60;99.90;;;;;;4849300;29;20737;-77
2021/12/25 07:57:26;;;;;;;8.07;4.07;;;-0.60;99.90;;;;;;4854319;29;20038;-77
2021/12/25 07:59:53;;;;;;;5.60;4.07;;;-0.70;99.90;;;;;;4842548;29;20029;-77
2021/12/25 08:02:19;;;;;;;5.53;4.07;;;-0.70;99.90;;;;;;4840047;29;20033;-77
2021/12/25 08:04:46;;;;;;;7.63;4.87;;;-0.70;99.90;;;;;;4849352;29;20501;-77
2021/12/25 08:07:12;;;;;;;6.93;4.03;;;-0.80;99.90;;;;;;4825070;29;20021;-77
2021/12/25 08:09:39;;;;;;;7.27;3.90;;;-0.80;99.90;;;;;;4822694;29;20034;-76
2021/12/25 08:12:06;;;;;;;4.27;3.47;;;-0.80;99.90;;;;;;4837298;29;20041;-76
2021/12/25 08:14:33;;;;;;;6.33;3.83;;;-0.90;99.90;;;;;;4844773;29;20473;-77
2021/12/25 08:17:01;;;;;;;5.63;4.37;;;-1.00;99.90;;;;;;4833670;29;20052;-77
2021/12/25 08:19:48;;;;;;;4.97;4.20;;;-1.00;99.90;;;;;;4826258;29;20041;-77
2021/12/25 08:22:50;;;;;;;4.17;2.87;;;-1.10;99.90;;;;;;4843042;29;20046;-76
2021/12/25 08:25:35;;;;;;;7.47;2.97;;;-1.10;99.90;;;;;;4849162;29;20034;-76
2021/12/25 08:28:20;;;;;;;6.77;2.50;;;-1.20;99.90;;;;;;4841955;29;20037;-76
2021/12/25 08:31:19;;;;;;;4.60;2.23;;;-1.20;99.90;;;;;;4828245;29;20049;-77
2021/12/25 08:34:04;;;;;;;3.67;2.53;;;-1.30;99.90;;;;;;4835710;29;20039;-81
2021/12/25 08:36:54;;;;;;;3.87;2.17;;;-1.30;99.90;;;;;;4814471;29;20063;-80
2021/12/25 08:39:21;;;;;;;3.07;1.77;;;-1.30;99.90;;;;;;4825117;29;20056;-84
2021/12/25 08:41:47;;;;;;;3.33;2.13;;;-1.30;99.90;;;;;;4858071;29;20515;-80
2021/12/25 08:44:35;;;;;;;2.60;1.47;;;-1.30;99.90;;;;;;4836363;29;20030;-80
2021/12/25 08:47:05;;;;;;;5.57;2.00;;;-1.40;99.90;;;;;;4824294;29;20065;-80
2021/12/25 08:49:33;;;;;;;2.77;1.70;;;-1.30;99.90;;;;;;4838233;29;20049;-78
2021/12/25 08:52:04;;;;;;;3.63;1.53;;;-1.30;99.90;;;;;;4849160;29;20048;-80
2021/12/25 08:54:31;;;;;;;4.20;2.57;;;-1.30;99.90;;;;;;4846437;29;20045;-80
2021/12/25 08:56:59;;;;;;;2.03;1.10;;;-1.40;99.90;;;;;;4840887;29;20040;-82
2021/12/25 08:59:27;;;;;;;1.90;1.20;;;-1.40;99.90;;;;;;4857155;29;20047;-80
2021/12/25 09:01:55;;;;;;;7.30;1.13;;;-1.40;99.90;;;;;;4852233;29;20366;-80
2021/12/25 09:04:21;;;;;;;3.70;1.13;;;-1.40;99.90;;;;;;4850594;29;20029;-80
2021/12/25 09:06:48;;;;;;;3.07;1.10;;;-1.40;99.90;;;;;;4852500;29;20112;-80
2021/12/25 09:09:14;;;;;;;3.93;0.70;;;-1.30;99.90;;;;;;4847035;29;20038;-80
2021/12/25 09:11:42;;;;;;;1.87;0.80;;;-1.30;99.90;;;;;;4854488;29;20052;-79
2021/12/25 09:14:08;;;;;;;3.20;0.60;;;-1.30;99.90;;;;;;4849139;29;20046;-80
2021/12/25 09:16:35;;;;;;;1.67;0.70;;;-1.30;99.90;;;;;;4838129;29;20060;-77
2021/12/25 09:19:01;;;;;;;2.73;0.77;;;-1.30;99.90;;;;;;4850431;29;20041;-79
2021/12/25 09:21:28;;;;;;;2.30;0.60;;;-1.30;99.90;;;;;;4847603;29;20057;-78
2021/12/25 09:23:54;;;;;;;6.13;0.70;;;-1.20;99.90;;;;;;4855352;29;20056;-78
2021/12/25 09:26:21;;;;;;;1.60;0.80;;;-1.20;99.90;;;;;;4836102;29;20056;-79
2021/12/25 09:28:50;;;;;;;2.33;0.70;;;-1.20;99.90;;;;;;4821802;29;20041;-80
2021/12/25 09:31:20;;;;;;;2.47;1.08;;;-1.10;99.90;;;;;;4850312;29;20064;-79
2021/12/25 09:33:47;;;;;;;2.90;0.53;;;-1.10;99.90;;;;;;4823833;29;20041;-79
2021/12/25 09:36:13;;;;;;;1.70;0.70;;;-1.10;99.90;;;;;;4835593;29;20038;-80
2021/12/25 09:38:40;;;;;;;1.63;0.93;;;-1.00;99.90;;;;;;4865028;29;20064;-78
2021/12/25 09:41:07;;;;;;;2.17;0.50;;;-1.00;99.90;;;;;;4852765;29;20037;-79
2021/12/25 09:43:34;;;;;;;5.47;0.50;;;-1.00;99.90;;;;;;4821380;29;20049;-79
2021/12/25 09:46:00;;;;;;;2.33;0.80;;;-0.90;99.90;;;;;;4833289;29;20049;-80
2021/12/25 09:48:27;;;;;;;1.23;0.40;;;-0.80;99.90;;;;;;4856951;29;20028;-81
2021/12/25 09:50:54;;;;;;;2.60;0.60;;;-0.80;99.90;;;;;;4869988;29;20056;-80
2021/12/25 09:53:22;;;;;;;3.43;0.70;;;-0.70;99.90;;;;;;4866970;29;20036;-79
2021/12/25 09:55:49;;;;;;;1.80;0.40;;;-0.60;99.90;;;;;;4837139;29;20064;-81
2021/12/25 09:58:15;;;;;;;3.03;0.50;;;-0.50;99.90;;;;;;4855917;29;20048;-79
2021/12/25 10:00:45;;;;;;;1.63;0.40;;;-0.40;99.90;;;;;;4863428;29;20999;-80
2021/12/25 10:03:12;;;;;;;1.47;0.40;;;-0.20;99.90;;;;;;4862234;29;20028;-79
2021/12/25 10:05:41;;;;;;;1.20;0.40;;;-0.10;99.90;;;;;;4842822;29;20064;-80
2021/12/25 10:08:26;;;;;;;1.70;0.40;;;0.10;99.90;;;;;;4865849;29;20034;-82
2021/12/25 10:10:57;;;;;;;0.60;0.40;;;0.30;99.90;;;;;;4838351;29;20041;-82
2021/12/25 10:13:23;;;;;;;2.17;0.50;;;0.40;99.90;;;;;;4862672;29;20039;-80
2021/12/25 10:15:58;;;;;;;1.20;0.40;;;0.60;99.90;;;;;;4849949;29;20062;-78
2021/12/25 10:18:34;;;;;;;1.50;0.40;;;0.70;99.90;;;;;;4831529;29;20049;-78
2021/12/25 10:21:24;;;;;;;1.63;0.40;;;0.80;99.90;;;;;;4870440;29;20502;-79
2021/12/25 10:24:07;;;;;;;2.85;0.60;;;1.00;99.90;;;;;;4864518;29;20042;-79
2021/12/25 10:26:35;;;;;;;1.38;0.22;;;1.10;99.90;;;;;;4836824;29;20040;-76
2021/12/25 10:29:24;;;;;;;0.57;0.30;;;1.20;99.90;;;;;;4853292;29;20029;-78
2021/12/25 10:31:54;;;;;;;2.78;0.30;;;1.40;99.90;;;;;;4817779;29;20044;-78
2021/12/25 10:34:24;;;;;;;1.73;0.40;;;1.50;99.90;;;;;;4833382;29;20029;-78
2021/12/25 10:36:51;;;;;;;2.53;0.40;;;1.50;99.90;;;;;;4848597;29;20401;-77
2021/12/25 10:39:27;;;;;;;3.25;0.85;;;1.50;99.90;;;;;;4841976;29;20033;-77
2021/12/25 10:42:07;;;;;;;2.57;0.50;;;1.20;99.90;;;;;;4862567;29;20401;-78
2021/12/25 10:44:36;;;;;;;1.00;0.40;;;0.90;99.90;;;;;;4861825;29;20045;-78
2021/12/25 10:47:06;;;;;;;0.57;0.23;;;0.70;99.90;;;;;;4840431;29;20040;-77
2021/12/25 10:49:38;;;;;;;3.67;0.70;;;0.50;99.90;;;;;;4848588;29;20029;-77
2021/12/25 10:52:14;;;;;;;1.57;0.50;;;0.40;99.90;;;;;;4848801;29;20040;-77
2021/12/25 10:55:03;;;;;;;2.23;0.40;;;0.30;99.90;;;;;;4851403;29;20413;-83
2021/12/25 10:57:31;;;;;;;1.10;0.50;;;0.10;99.90;;;;;;4876040;29;20044;-79
2021/12/25 10:59:58;;;;;;;1.90;0.30;;;0.00;99.90;;;;;;4872960;29;20025;-81
2021/12/25 11:02:31;;;;;;;1.70;0.50;;;0.00;99.90;;;;;;4855085;29;20385;-79
2021/12/25 11:04:58;;;;;;;;;;;-0.10;99.90;;;;;;4871475;29;20045;-79
2021/12/25 11:07:25;;;;;;;2.17;0.47;;;-0.10;99.90;;;;;;4871457;29;19912;-80
2021/12/25 11:10:13;;;;;;;1.27;0.50;;;-0.10;99.90;;;;;;4858752;29;20389;-81
2021/12/25 11:12:40;;;;;;;1.40;0.40;;;-0.10;99.90;;;;;;4866131;29;20036;-82
2021/12/25 11:15:24;;;;;;;0.90;0.50;;;-0.20;99.90;;;;;;4854444;29;20041;-83
2021/12/25 11:17:53;;;;;;;2.40;0.40;;;-0.20;99.90;;;;;;4850171;29;20056;-78
2021/12/25 11:20:34;;;;;;;1.83;0.40;;;-0.20;99.90;;;;;;4866821;29;20024;-78
2021/12/25 11:23:03;;;;;;;2.30;0.53;;;-0.20;99.90;;;;;;4853494;29;20056;-77
2021/12/25 11:25:32;;;;;;;4.30;0.57;;;-0.20;99.90;;;;;;4866430;29;20021;-78
2021/12/25 11:28:01;;;;;;;1.37;0.50;;;-0.20;99.90;;;;;;4867627;29;20033;-78
2021/12/25 11:30:31;;;;;;;0.60;0.37;;;-0.20;99.90;;;;;;4844412;29;20049;-78
2021/12/25 11:32:59;;;;;;;1.60;0.40;;;-0.20;99.90;;;;;;4852971;29;20481;-78
2021/12/25 11:35:26;;;;;;;3.10;0.50;;;-0.10;99.90;;;;;;4865718;29;20037;-78
2021/12/25 11:37:56;;;;;;;1.97;0.50;;;-0.20;99.90;;;;;;4855264;29;20053;-78
2021/12/25 11:40:25;;;;;;;2.07;0.50;;;-0.10;99.90;;;;;;4852196;29;20493;-78
2021/12/25 11:42:54;;;;;;;2.20;0.43;;;-0.10;99.90;;;;;;4851048;29;20060;-77
2021/12/25 11:45:26;;;;;;;3.43;0.40;;;-0.10;99.90;;;;;;4820230;29;20041;-78
2021/12/25 11:47:55;;;;;;;11.63;4.97;;;0.00;99.90;;;;;;4847872;29;20493;-79
2021/12/25 11:50:40;;;;;;;1.23;0.40;;;0.00;99.90;;;;;;4867967;29;20036;-79
2021/12/25 11:54:03;;;;;;;1.47;0.37;;;0.00;99.90;;;;;;4822418;29;20124;-80
2021/12/25 11:59:01;;;;;;;1.10;0.40;;;0.00;99.90;;;;;;4844777;29;20054;-82
2021/12/25 12:01:39;;;;;;;2.07;0.40;;;0.00;99.90;;;;;;4840243;29;20060;-81
2021/12/25 12:04:15;;;;;;;1.10;0.40;;;0.00;99.90;;;;;;4825171;29;20048;-79
2021/12/25 12:06:47;;;;;;;2.97;0.37;;;0.10;99.90;;;;;;4851196;29;20033;-78
2021/12/25 12:09:15;;;;;;;1.17;0.40;;;0.10;99.90;;;;;;4862534;29;20036;-78
2021/12/25 12:12:03;;;;;;;1.73;0.40;;;0.10;99.90;;;;;;4867333;29;20040;-78
2021/12/25 12:15:14;;;;;;;3.20;0.60;;;0.10;99.90;;;;;;4865691;29;20032;-78
2021/12/25 12:18:39;;;;;;;1.70;0.40;;;0.10;99.90;;;;;;4866196;29;20032;-78
2021/12/25 12:21:17;;;;;;;1.83;0.47;;;0.20;99.90;;;;;;4851305;29;20048;-78
2021/12/25 12:26:33;;;;;;;1.87;0.30;;;0.20;99.90;;;;;;4843628;29;20033;-78
2021/12/25 12:28:59;;;;;;;1.27;0.40;;;0.20;99.90;;;;;;4868779;29;20044;-78
2021/12/25 12:31:47;;;;;;;0.80;0.40;;;0.20;99.90;;;;;;4836977;29;20401;-76
2021/12/25 12:34:29;;;;;;;1.83;0.50;;;0.20;99.90;;;;;;4859944;29;20501;-77
2021/12/25 12:37:14;;;;;;;1.17;0.30;;;0.20;99.90;;;;;;4864468;29;20044;-79
2021/12/25 12:40:06;;;;;;;1.97;0.40;;;0.20;99.90;;;;;;4869677;29;20036;-79
2021/12/25 12:42:47;;;;;;;2.47;0.30;;;0.20;99.90;;;;;;4861835;29;20494;-78
2021/12/25 12:45:19;;;;;;;1.77;0.40;;;0.30;99.90;;;;;;4848919;29;20041;-81
2021/12/25 12:48:18;;;;;;;3.95;0.40;;;0.20;99.90;;;;;;4838858;29;20963;-78
2021/12/25 12:50:55;;;;;;;1.27;0.40;;;0.30;99.90;;;;;;4829503;29;20037;-78
2021/12/25 12:53:24;;;;;;;3.77;0.50;;;0.30;99.90;;;;;;4860825;29;20036;-78
2021/12/25 12:55:53;;;;;;;1.30;0.40;;;0.30;99.90;;;;;;4856411;29;20045;-79
2021/12/25 12:58:26;;;;;;;2.53;0.40;;;0.30;99.90;;;;;;4854264;29;20407;-80
2021/12/25 13:00:55;;;;;;;2.22;0.43;;;0.30;99.90;;;;;;4852436;29;20056;-83
2021/12/25 13:03:25;;;;;;;2.70;0.40;;;0.30;99.90;;;;;;4861927;29;20044;-81
2021/12/25 13:06:10;;;;;;;7.57;1.97;;;0.30;99.90;;;;;;4835375;29;20043;-81
2021/12/25 13:08:38;;;;;;;1.40;0.70;;;0.30;99.90;;;;;;4855446;29;20489;-81
2021/12/25 13:16:43;;;;;;;1.10;0.50;;;0.20;99.90;;;;;;4831027;29;20041;-78
2021/12/25 13:19:09;;;;;;;2.37;0.50;;;0.30;99.90;;;;;;4862875;29;20029;-78
2021/12/25 13:21:37;;;;;;;2.00;0.40;;;0.20;99.90;;;;;;4838681;29;20628;-79
2021/12/25 13:24:13;;;;;;;1.23;0.43;;;0.20;99.90;;;;;;4867025;29;20405;-78
2021/12/25 13:26:47;;;;;;;1.17;0.50;;;0.20;99.90;;;;;;4842640;29;20485;-78
2021/12/25 13:29:19;;;;;;;2.50;0.40;;;0.20;99.90;;;;;;4846364;29;20036;-78
2021/12/25 13:31:47;;;;;;;0.88;0.50;;;0.20;99.90;;;;;;4842018;29;20037;-78
2021/12/25 13:34:18;;;;;;;1.37;0.50;;;0.20;99.90;;;;;;4829720;29;20056;-79
2021/12/25 13:36:55;;;;;;;1.87;0.43;;;0.20;99.90;;;;;;4865676;29;20028;-76
2021/12/25 13:39:27;;;;;;;1.27;0.60;;;0.20;99.90;;;;;;4846375;29;20049;-78
2021/12/25 13:41:55;;;;;;;2.95;0.50;;;0.10;99.90;;;;;;4841447;29;21597;-79
2021/12/25 13:44:30;;;;;;;1.20;0.50;;;0.10;99.90;;;;;;4852596;29;20412;-80
2021/12/25 13:47:04;;;;;;;2.47;0.40;;;0.10;99.90;;;;;;4862374;29;20358;-85
2021/12/25 13:49:36;;;;;;;1.33;0.40;;;0.10;99.90;;;;;;4845073;29;20042;-78
2021/12/25 13:52:10;;;;;;;3.10;0.52;;;0.10;99.90;;;;;;4853600;29;20036;-78
2021/12/25 13:54:39;;;;;;;2.77;0.50;;;0.10;99.90;;;;;;4847434;29;20071;-78
2021/12/25 13:57:06;;;;;;;3.20;0.50;;;0.00;99.90;;;;;;4843954;29;20052;-78
2021/12/25 13:59:33;;;;;;;1.20;0.40;;;0.00;99.90;;;;;;4832240;29;20054;-78
2021/12/25 14:02:11;;;;;;;2.40;0.50;;;0.00;99.90;;;;;;4820800;29;20057;-77
2021/12/25 14:04:42;;;;;;;2.47;0.50;;;0.00;99.90;;;;;;4845062;29;20030;-78
2021/12/25 14:07:11;;;;;;;1.43;0.30;;;0.00;99.90;;;;;;4814815;29;20038;-78
2021/12/25 14:09:37;;;;;;;2.43;0.50;;;0.00;99.90;;;;;;4841330;29;20038;-78
2021/12/25 14:12:05;;;;;;;3.83;0.53;;;-0.10;99.90;;;;;;4830308;29;20046;-78
2021/12/25 14:14:33;;;;;;;4.27;0.40;;;-0.10;99.90;;;;;;4842999;29;20037;-78
2021/12/25 14:17:00;;;;;;;1.27;0.40;;;-0.10;99.90;;;;;;4838754;29;20493;-78
2021/12/25 14:19:29;;;;;;;2.00;0.57;;;-0.10;99.90;;;;;;4845926;29;20041;-78
2021/12/25 14:22:01;;;;;;;2.03;0.47;;;-0.10;99.90;;;;;;4816964;29;20046;-78
2021/12/25 14:24:38;;;;;;;2.38;0.60;;;-0.20;99.90;;;;;;4855045;29;20025;-78
2021/12/25 14:27:08;;;;;;;1.57;0.50;;;-0.20;99.90;;;;;;4820232;29;20064;-78
2021/12/25 14:29:34;;;;;;;1.80;0.50;;;-0.20;99.90;;;;;;4814489;29;20049;-78
2021/12/25 14:32:01;;;;;;;3.50;0.40;;;-0.20;99.90;;;;;;4806985;29;20041;-78
2021/12/25 14:34:31;;;;;;;1.80;0.50;;;-0.20;99.90;;;;;;4837960;29;20485;-78
2021/12/25 14:36:58;;;;;;;1.13;0.43;;;-0.30;99.90;;;;;;4823489;29;20046;-78
2021/12/25 14:39:26;;;;;;;1.73;0.50;;;-0.30;99.90;;;;;;4839536;29;20036;-78
2021/12/25 14:41:53;;;;;;;0.90;0.40;;;-0.30;99.90;;;;;;4859899;29;20543;-78
2021/12/25 14:44:25;;;;;;;1.50;0.50;;;-0.30;99.90;;;;;;4833671;29;20037;-79
2021/12/25 14:47:10;;;;;;;1.45;0.50;;;-0.40;99.90;;;;;;4834208;29;20040;-79